Time;durP1;ratioP1;P1;durP2;ratioP2;P2;SDS_P1;SDS_P2;PMS_P1;PMS_P2;Temp;Humidity;BMP_temperature;BMP_pressure;BME280_temperature;BME280_humidity;BME280_pressure;Samples;Min_cycle;Max_cycle;Signal;HPM_P1;HPM_P2
2021/11/29 05:06:54;;;;;;;0.82;0.20;;;;;;;;;;4903915;29;20043;-47
2021/11/29 05:09:20;;;;;;;1.33;0.60;;;;;;;;;;4897369;29;20031;-48
2021/11/29 05:11:46;;;;;;;0.47;0.25;;;;;;;;;;4897331;29;20031;-48
2021/11/29 05:14:12;;;;;;;0.35;0.30;;;;;;;;;;4897323;29;20485;-48
2021/11/29 05:16:39;;;;;;;0.57;0.40;;;;;;;;;;4897216;29;20029;-47
2021/11/29 05:19:06;;;;;;;0.50;0.28;;;;;;;;;;4897548;29;20037;-48
2021/11/29 05:21:33;;;;;;;1.15;0.20;;;;;;;;;;4895825;29;20032;-49
2021/11/29 05:23:59;;;;;;;0.50;0.20;;;;;;;;;;4897364;29;20132;-48
2021/11/29 05:26:26;;;;;;;0.80;0.30;;;14.50;70.10;;;;;;4896258;29;20580;-53
2021/11/29 05:28:52;;;;;;;0.63;0.30;;;;;;;;;;4897315;29;20044;-50
2021/11/29 05:31:19;;;;;;;2.50;0.50;;;;;;;;;;4897264;29;20033;-50
2021/11/29 05:33:45;;;;;;;1.50;0.40;;;;;;;;;;4897251;29;20033;-50
2021/11/29 05:36:11;;;;;;;1.02;0.32;;;;;;;;;;4897230;29;20029;-51
2021/11/29 05:38:37;;;;;;;0.77;0.35;;;;;;;;;;4897278;29;20479;-49
2021/11/29 05:41:04;;;;;;;0.25;0.15;;;14.70;66.80;;;;;;4895737;29;20039;-50
2021/11/29 05:43:30;;;;;;;1.10;0.10;;;;;;;;;;4897044;29;20085;-50
2021/11/29 05:45:57;;;;;;;0.65;0.20;;;;;;;;;;4897213;29;20392;-47
2021/11/29 05:48:23;;;;;;;1.35;0.43;;;;;;;;;;4897084;29;20119;-50
2021/11/29 05:50:49;;;;;;;0.80;0.38;;;;;;;;;;4897143;29;20085;-50
2021/11/29 05:53:15;;;;;;;0.30;0.15;;;;;;;;;;4896748;29;20033;-51
2021/11/29 05:55:41;;;;;;;1.77;0.35;;;;;;;;;;4896871;29;20036;-50
2021/11/29 05:58:07;;;;;;;1.10;0.25;;;;;;;;;;4896732;29;20078;-48
2021/11/29 06:00:33;;;;;;;1.17;0.30;;;;;;;;;;4896976;29;20036;-47
2021/11/29 06:02:59;;;;;;;1.38;0.30;;;;;;;;;;4896400;29;20389;-46
2021/11/29 06:05:26;;;;;;;0.63;0.25;;;;;;;;;;4896888;29;20043;-45
2021/11/29 06:07:52;;;;;;;1.63;0.40;;;;;;;;;;4896714;29;20036;-49
2021/11/29 06:10:18;;;;;;;1.05;0.40;;;;;;;;;;4896697;29;20036;-47
2021/11/29 06:12:45;;;;;;;0.55;0.25;;;;;;;;;;4896884;29;20025;-45
2021/11/29 06:15:13;;;;;;;0.40;0.20;;;15.10;69.10;;;;;;4896984;29;20383;-45
2021/11/29 06:17:39;;;;;;;1.00;0.45;;;;;;;;;;4896867;29;20032;-47
2021/11/29 06:20:06;;;;;;;0.43;0.20;;;15.20;69.30;;;;;;4896647;29;20036;-45
2021/11/29 06:22:33;;;;;;;1.80;0.20;;;;;;;;;;4896281;29;20515;-48
2021/11/29 06:24:58;;;;;;;0.95;0.30;;;;;;;;;;4896666;29;20029;-46
2021/11/29 06:27:24;;;;;;;0.98;0.20;;;;;;;;;;4896427;29;20483;-45
2021/11/29 06:29:50;;;;;;;0.57;0.30;;;;;;;;;;4896246;29;20029;-48
2021/11/29 06:32:16;;;;;;;1.05;0.20;;;;;;;;;;4896479;29;20395;-47
2021/11/29 06:34:43;;;;;;;0.90;0.30;;;;;;;;;;4896446;29;20029;-47
2021/11/29 06:37:10;;;;;;;0.90;0.30;;;15.60;70.10;;;;;;4898122;29;20391;-48
2021/11/29 06:39:37;;;;;;;0.73;0.30;;;15.70;69.90;;;;;;4899840;29;20103;-47
2021/11/29 06:42:04;;;;;;;2.25;0.40;;;15.70;70.30;;;;;;4899772;29;20063;-47
2021/11/29 06:44:30;;;;;;;1.85;0.40;;;;;;;;;;4899439;29;20013;-47
2021/11/29 06:46:56;;;;;;;1.30;0.50;;;;;;;;;;4899701;29;20035;-47
2021/11/29 06:49:22;;;;;;;1.40;0.30;;;;;;;;;;4899680;29;20029;-47
2021/11/29 06:51:48;;;;;;;1.65;0.35;;;;;;;;;;4899476;29;20052;-51
2021/11/29 06:54:15;;;;;;;1.98;0.35;;;;;;;;;;4899411;29;20028;-51
2021/11/29 06:56:41;;;;;;;0.95;0.35;;;;;;;;;;4899382;29;20499;-50
2021/11/29 06:59:08;;;;;;;2.13;0.40;;;;;;;;;;4899393;29;20040;-50
2021/11/29 07:01:34;;;;;;;0.65;0.20;;;;;;;;;;4899036;29;20166;-50
2021/11/29 07:04:00;;;;;;;1.85;0.80;;;;;;;;;;4899722;29;20419;-49
2021/11/29 07:06:26;;;;;;;1.38;0.40;;;;;;;;;;4899657;29;20032;-49
2021/11/29 07:08:53;;;;;;;2.13;0.43;;;;;;;;;;4899543;29;20096;-50
2021/11/29 07:11:19;;;;;;;3.53;0.50;;;;;;;;;;4899663;29;20040;-49
2021/11/29 07:13:45;;;;;;;5.57;0.40;;;;;;;;;;4899295;29;20043;-53
2021/11/29 07:16:11;;;;;;;1.50;0.55;;;;;;;;;;4899264;29;20089;-49
2021/11/29 07:18:37;;;;;;;0.52;0.25;;;;;;;;;;4899428;29;20039;-51
2021/11/29 07:21:04;;;;;;;2.35;0.63;;;;;;;;;;4899159;29;20048;-49
2021/11/29 07:23:30;;;;;;;4.18;0.75;;;;;;;;;;4899191;29;20052;-52
2021/11/29 07:25:56;;;;;;;0.60;0.25;;;;;;;;;;4898947;29;20558;-50
2021/11/29 07:28:22;;;;;;;1.05;0.40;;;;;;;;;;4899266;29;20028;-49
2021/11/29 07:30:48;;;;;;;2.03;0.50;;;;;;;;;;4898768;29;20635;-51
2021/11/29 07:33:14;;;;;;;2.78;0.30;;;;;;;;;;4898573;29;20381;-52
2021/11/29 07:35:40;;;;;;;1.30;0.20;;;;;;;;;;4898437;29;20043;-50
2021/11/29 07:38:06;;;;;;;1.67;0.47;;;;;;;;;;4898784;29;20024;-50
2021/11/29 07:40:32;;;;;;;0.90;0.45;;;;;;;;;;4898633;29;20547;-51
2021/11/29 07:43:00;;;;;;;1.20;0.35;;;16.50;69.80;;;;;;4898586;29;20044;-50
2021/11/29 07:45:26;;;;;;;1.30;0.50;;;;;;;;;;4898489;29;20293;-50
2021/11/29 07:47:52;;;;;;;0.85;0.30;;;;;;;;;;4898281;29;20028;-50
2021/11/29 07:50:18;;;;;;;3.50;0.40;;;16.50;70.00;;;;;;4898474;29;20183;-51
2021/11/29 07:52:47;;;;;;;1.65;0.50;;;16.50;69.70;;;;;;4898525;29;20033;-51
2021/11/29 07:55:15;;;;;;;1.42;0.52;;;;;;;;;;4898485;29;20048;-50
2021/11/29 07:57:41;;;;;;;1.75;0.57;;;;;;;;;;4898533;29;20096;-50
2021/11/29 08:00:12;;;;;;;1.92;0.47;;;16.60;69.70;;;;;;4898374;29;20032;-51
2021/11/29 08:02:38;;;;;;;1.40;0.50;;;;;;;;;;4898114;29;20056;-50
2021/11/29 08:05:04;;;;;;;3.55;0.80;;;;;;;;;;4898292;29;20088;-50
2021/11/29 08:07:30;;;;;;;3.38;0.52;;;;;;;;;;4898338;29;20100;-51
2021/11/29 08:09:57;;;;;;;3.53;0.43;;;;;;;;;;4898426;29;20036;-51
2021/11/29 08:12:23;;;;;;;2.63;0.70;;;;;;;;;;4898305;29;20032;-51
2021/11/29 08:14:53;;;;;;;2.20;0.35;;;;;;;;;;4898274;29;20400;-51
2021/11/29 08:17:19;;;;;;;1.23;0.43;;;;;;;;;;4898255;29;20037;-51
2021/11/29 08:19:45;;;;;;;1.23;0.40;;;;;;;;;;4897995;29;20102;-50
2021/11/29 08:22:11;;;;;;;1.67;0.40;;;;;;;;;;4897911;29;20041;-50
2021/11/29 08:24:37;;;;;;;1.90;0.45;;;;;;;;;;4898007;29;20476;-51
2021/11/29 08:27:03;;;;;;;2.83;0.60;;;;;;;;;;4898109;29;20080;-53
2021/11/29 08:29:29;;;;;;;2.17;0.50;;;;;;;;;;4898161;29;20029;-54
2021/11/29 08:31:55;;;;;;;1.45;0.45;;;;;;;;;;4880850;29;20036;-51
2021/11/29 08:34:21;;;;;;;5.40;0.77;;;;;;;;;;4897567;29;20032;-53
2021/11/29 08:36:47;;;;;;;3.17;0.77;;;;;;;;;;4897667;29;20115;-51
2021/11/29 08:39:12;;;;;;;2.42;0.60;;;;;;;;;;4897959;29;20108;-51
2021/11/29 08:41:38;;;;;;;2.53;0.60;;;;;;;;;;4898055;29;20468;-51
2021/11/29 08:44:05;;;;;;;2.97;0.60;;;;;;;;;;4897868;29;20041;-51
2021/11/29 08:46:31;;;;;;;1.73;0.50;;;16.70;70.20;;;;;;4897637;29;20028;-50
2021/11/29 08:48:57;;;;;;;0.57;0.45;;;;;;;;;;4897920;29;20032;-54
2021/11/29 08:51:23;;;;;;;2.70;0.60;;;;;;;;;;4897496;29;20506;-50
2021/11/29 08:53:49;;;;;;;1.65;0.50;;;;;;;;;;4897783;29;20392;-51
2021/11/29 08:56:16;;;;;;;1.30;0.35;;;;;;;;;;4897725;29;20029;-50
2021/11/29 08:58:43;;;;;;;0.40;0.30;;;16.70;68.80;;;;;;4897501;29;20432;-52
2021/11/29 09:01:09;;;;;;;1.95;0.50;;;;;;;;;;4897607;29;20024;-50
2021/11/29 09:03:35;;;;;;;1.48;0.57;;;;;;;;;;4897164;29;20546;-49
2021/11/29 09:06:01;;;;;;;5.82;0.80;;;;;;;;;;4897520;29;20025;-51
2021/11/29 09:08:27;;;;;;;3.67;0.35;;;16.70;67.20;;;;;;4897333;29;20039;-49
2021/11/29 09:10:53;;;;;;;3.33;0.70;;;;;;;;;;4897230;29;20443;-50
2021/11/29 09:13:20;;;;;;;3.85;0.77;;;16.70;70.10;;;;;;4897129;29;20103;-51
2021/11/29 09:15:47;;;;;;;2.70;0.80;;;16.70;70.40;;;;;;4897487;29;20044;-50
2021/11/29 09:18:14;;;;;;;1.45;0.70;;;16.60;70.80;;;;;;4897699;29;20021;-49
2021/11/29 09:20:41;;;;;;;0.82;0.40;;;16.60;70.80;;;;;;4897144;29;20044;-50
2021/11/29 09:23:11;;;;;;;2.92;0.70;;;16.60;70.60;;;;;;4896945;29;20514;-49
2021/11/29 09:25:41;;;;;;;2.40;0.47;;;;;;;;;;4896999;29;20029;-50
2021/11/29 09:28:11;;;;;;;3.40;0.52;;;16.60;70.50;;;;;;4897264;29;20063;-50
2021/11/29 09:30:37;;;;;;;4.63;0.73;;;;;;;;;;4878115;29;20415;-51
